sensor_id;sensor_type;location;lat;lon;timestamp;temperature;humidity
59975;DHT22;62136;-35.664;-63.766;2022-12-18T00:01:34;29.30;33.20
59975;DHT22;62136;-35.664;-63.766;2022-12-18T00:04:04;29.30;33.20
59975;DHT22;62136;-35.664;-63.766;2022-12-18T00:06:32;29.30;33.30
59975;DHT22;62136;-35.664;-63.766;2022-12-18T00:09:00;29.20;33.20
59975;DHT22;62136;-35.664;-63.766;2022-12-18T00:11:34;29.20;33.30
59975;DHT22;62136;-35.664;-63.766;2022-12-18T00:14:39;29.20;33.40
59975;DHT22;62136;-35.664;-63.766;2022-12-18T00:17:29;29.20;33.40
59975;DHT22;62136;-35.664;-63.766;2022-12-18T00:19:56;29.20;33.30
59975;DHT22;62136;-35.664;-63.766;2022-12-18T00:22:23;29.20;33.30
59975;DHT22;62136;-35.664;-63.766;2022-12-18T00:24:50;29.10;33.40
59975;DHT22;62136;-35.664;-63.766;2022-12-18T00:27:17;29.10;33.40
59975;DHT22;62136;-35.664;-63.766;2022-12-18T00:29:44;29.10;33.50
59975;DHT22;62136;-35.664;-63.766;2022-12-18T00:32:11;29.10;33.50
59975;DHT22;62136;-35.664;-63.766;2022-12-18T00:34:38;29.00;33.50
59975;DHT22;62136;-35.664;-63.766;2022-12-18T00:37:05;29.00;33.50
59975;DHT22;62136;-35.664;-63.766;2022-12-18T00:39:32;29.00;33.60
59975;DHT22;62136;-35.664;-63.766;2022-12-18T00:42:00;29.00;33.60
59975;DHT22;62136;-35.664;-63.766;2022-12-18T00:44:45;29.00;33.50
59975;DHT22;62136;-35.664;-63.766;2022-12-18T00:47:12;29.00;33.60
59975;DHT22;62136;-35.664;-63.766;2022-12-18T00:49:39;29.00;33.60
59975;DHT22;62136;-35.664;-63.766;2022-12-18T00:52:06;29.00;33.60
59975;DHT22;62136;-35.664;-63.766;2022-12-18T00:54:33;29.00;33.60
59975;DHT22;62136;-35.664;-63.766;2022-12-18T00:57:00;29.00;33.60
59975;DHT22;62136;-35.664;-63.766;2022-12-18T00:59:27;28.90;33.70
59975;DHT22;62136;-35.664;-63.766;2022-12-18T01:01:54;28.90;33.70
59975;DHT22;62136;-35.664;-63.766;2022-12-18T01:04:21;28.90;33.80
59975;DHT22;62136;-35.664;-63.766;2022-12-18T01:06:48;28.90;33.80
59975;DHT22;62136;-35.664;-63.766;2022-12-18T01:09:15;28.80;33.80
59975;DHT22;62136;-35.664;-63.766;2022-12-18T01:11:42;28.80;33.80
59975;DHT22;62136;-35.664;-63.766;2022-12-18T01:14:09;28.80;33.80
59975;DHT22;62136;-35.664;-63.766;2022-12-18T01:16:36;28.80;33.80
59975;DHT22;62136;-35.664;-63.766;2022-12-18T01:19:03;28.80;33.80
59975;DHT22;62136;-35.664;-63.766;2022-12-18T01:21:33;28.80;33.80
59975;DHT22;62136;-35.664;-63.766;2022-12-18T01:24:00;28.70;33.80
59975;DHT22;62136;-35.664;-63.766;2022-12-18T01:26:28;28.70;33.90
59975;DHT22;62136;-35.664;-63.766;2022-12-18T01:28:56;28.70;33.90
59975;DHT22;62136;-35.664;-63.766;2022-12-18T01:31:27;28.70;33.90
59975;DHT22;62136;-35.664;-63.766;2022-12-18T01:33:55;28.70;34.00
59975;DHT22;62136;-35.664;-63.766;2022-12-18T01:36:25;28.70;34.00
59975;DHT22;62136;-35.664;-63.766;2022-12-18T01:38:53;28.70;34.00
59975;DHT22;62136;-35.664;-63.766;2022-12-18T01:41:26;28.70;34.00
59975;DHT22;62136;-35.664;-63.766;2022-12-18T01:47:36;28.60;33.90
59975;DHT22;62136;-35.664;-63.766;2022-12-18T01:50:17;28.60;34.00
59975;DHT22;62136;-35.664;-63.766;2022-12-18T01:52:53;28.60;34.00
59975;DHT22;62136;-35.664;-63.766;2022-12-18T01:55:23;28.60;34.10
59975;DHT22;62136;-35.664;-63.766;2022-12-18T01:57:56;28.60;34.10
59975;DHT22;62136;-35.664;-63.766;2022-12-18T02:00:25;28.50;34.10
59975;DHT22;62136;-35.664;-63.766;2022-12-18T02:02:53;28.50;34.10
59975;DHT22;62136;-35.664;-63.766;2022-12-18T02:10:41;28.50;34.20
59975;DHT22;62136;-35.664;-63.766;2022-12-18T02:13:19;28.50;34.40
59975;DHT22;62136;-35.664;-63.766;2022-12-18T02:18:35;28.50;34.30
59975;DHT22;62136;-35.664;-63.766;2022-12-18T02:21:36;28.40;34.20
59975;DHT22;62136;-35.664;-63.766;2022-12-18T02:27:12;28.40;34.30
59975;DHT22;62136;-35.664;-63.766;2022-12-18T02:29:48;28.30;34.30
59975;DHT22;62136;-35.664;-63.766;2022-12-18T02:32:31;28.40;34.30
59975;DHT22;62136;-35.664;-63.766;2022-12-18T02:34:59;28.30;34.30
59975;DHT22;62136;-35.664;-63.766;2022-12-18T02:37:28;28.30;34.30
59975;DHT22;62136;-35.664;-63.766;2022-12-18T02:39:57;28.30;34.40
59975;DHT22;62136;-35.664;-63.766;2022-12-18T02:42:26;28.30;34.40
59975;DHT22;62136;-35.664;-63.766;2022-12-18T02:44:54;28.30;34.40
59975;DHT22;62136;-35.664;-63.766;2022-12-18T02:47:24;28.30;34.50
59975;DHT22;62136;-35.664;-63.766;2022-12-18T02:50:22;28.30;34.50
59975;DHT22;62136;-35.664;-63.766;2022-12-18T02:53:03;28.20;34.50
59975;DHT22;62136;-35.664;-63.766;2022-12-18T02:58:05;28.20;34.60
59975;DHT22;62136;-35.664;-63.766;2022-12-18T03:00:50;28.20;34.60
59975;DHT22;62136;-35.664;-63.766;2022-12-18T03:03:47;28.20;34.50
59975;DHT22;62136;-35.664;-63.766;2022-12-18T03:06:23;28.20;34.60
59975;DHT22;62136;-35.664;-63.766;2022-12-18T03:09:07;28.10;34.60
59975;DHT22;62136;-35.664;-63.766;2022-12-18T03:11:39;28.10;34.60
59975;DHT22;62136;-35.664;-63.766;2022-12-18T03:14:27;28.10;34.70
59975;DHT22;62136;-35.664;-63.766;2022-12-18T03:17:03;28.10;34.70
59975;DHT22;62136;-35.664;-63.766;2022-12-18T03:19:32;28.10;34.70
59975;DHT22;62136;-35.664;-63.766;2022-12-18T03:22:02;28.10;34.70
59975;DHT22;62136;-35.664;-63.766;2022-12-18T03:24:31;28.10;34.60
59975;DHT22;62136;-35.664;-63.766;2022-12-18T03:27:04;28.10;34.80
59975;DHT22;62136;-35.664;-63.766;2022-12-18T03:30:17;28.00;34.70
59975;DHT22;62136;-35.664;-63.766;2022-12-18T03:32:58;28.00;34.80
59975;DHT22;62136;-35.664;-63.766;2022-12-18T03:35:33;28.00;34.80
59975;DHT22;62136;-35.664;-63.766;2022-12-18T03:38:02;28.00;34.90
59975;DHT22;62136;-35.664;-63.766;2022-12-18T03:46:37;27.90;34.80
59975;DHT22;62136;-35.664;-63.766;2022-12-18T03:53:03;27.90;34.80
59975;DHT22;62136;-35.664;-63.766;2022-12-18T03:54:59;27.90;34.90
59975;DHT22;62136;-35.664;-63.766;2022-12-18T03:57:28;27.90;34.90
59975;DHT22;62136;-35.664;-63.766;2022-12-18T04:00:08;27.90;34.90
59975;DHT22;62136;-35.664;-63.766;2022-12-18T04:02:39;27.90;34.90
59975;DHT22;62136;-35.664;-63.766;2022-12-18T04:05:09;27.90;35.00
59975;DHT22;62136;-35.664;-63.766;2022-12-18T04:07:38;27.90;34.90
59975;DHT22;62136;-35.664;-63.766;2022-12-18T04:10:07;27.90;34.90
59975;DHT22;62136;-35.664;-63.766;2022-12-18T04:12:37;27.80;34.90
59975;DHT22;62136;-35.664;-63.766;2022-12-18T04:15:05;27.80;34.90
59975;DHT22;62136;-35.664;-63.766;2022-12-18T04:17:32;27.80;34.80
59975;DHT22;62136;-35.664;-63.766;2022-12-18T04:19:59;27.80;35.00
59975;DHT22;62136;-35.664;-63.766;2022-12-18T04:22:27;27.80;35.00
59975;DHT22;62136;-35.664;-63.766;2022-12-18T04:24:54;27.80;34.90
59975;DHT22;62136;-35.664;-63.766;2022-12-18T04:27:21;27.80;34.90
59975;DHT22;62136;-35.664;-63.766;2022-12-18T04:29:48;27.80;35.00
59975;DHT22;62136;-35.664;-63.766;2022-12-18T04:32:15;27.80;35.00
59975;DHT22;62136;-35.664;-63.766;2022-12-18T04:34:42;27.70;34.90
59975;DHT22;62136;-35.664;-63.766;2022-12-18T04:37:09;27.70;35.00
59975;DHT22;62136;-35.664;-63.766;2022-12-18T04:39:36;27.70;35.00
59975;DHT22;62136;-35.664;-63.766;2022-12-18T04:42:03;27.70;35.00
59975;DHT22;62136;-35.664;-63.766;2022-12-18T04:44:30;27.70;34.90
59975;DHT22;62136;-35.664;-63.766;2022-12-18T04:46:57;27.70;35.00
59975;DHT22;62136;-35.664;-63.766;2022-12-18T04:49:24;27.70;35.10
59975;DHT22;62136;-35.664;-63.766;2022-12-18T04:51:51;27.70;35.00
59975;DHT22;62136;-35.664;-63.766;2022-12-18T04:54:20;27.70;35.00
59975;DHT22;62136;-35.664;-63.766;2022-12-18T04:56:48;27.70;35.20
59975;DHT22;62136;-35.664;-63.766;2022-12-18T04:59:15;27.60;35.00
59975;DHT22;62136;-35.664;-63.766;2022-12-18T05:01:42;27.60;35.10
59975;DHT22;62136;-35.664;-63.766;2022-12-18T05:04:09;27.60;35.10
59975;DHT22;62136;-35.664;-63.766;2022-12-18T05:06:36;27.60;35.10
59975;DHT22;62136;-35.664;-63.766;2022-12-18T05:09:06;27.60;35.10
59975;DHT22;62136;-35.664;-63.766;2022-12-18T05:11:33;27.60;35.10
59975;DHT22;62136;-35.664;-63.766;2022-12-18T05:14:00;27.60;35.10
59975;DHT22;62136;-35.664;-63.766;2022-12-18T05:16:27;27.50;35.20
59975;DHT22;62136;-35.664;-63.766;2022-12-18T05:18:54;27.60;35.00
59975;DHT22;62136;-35.664;-63.766;2022-12-18T05:21:21;27.50;35.00
59975;DHT22;62136;-35.664;-63.766;2022-12-18T05:23:48;27.50;35.10
59975;DHT22;62136;-35.664;-63.766;2022-12-18T05:26:17;27.50;35.20
59975;DHT22;62136;-35.664;-63.766;2022-12-18T05:28:45;27.50;35.10
59975;DHT22;62136;-35.664;-63.766;2022-12-18T05:31:12;27.50;35.20
59975;DHT22;62136;-35.664;-63.766;2022-12-18T05:33:42;27.50;35.20
59975;DHT22;62136;-35.664;-63.766;2022-12-18T05:36:12;27.50;35.30
59975;DHT22;62136;-35.664;-63.766;2022-12-18T05:38:39;27.50;35.10
59975;DHT22;62136;-35.664;-63.766;2022-12-18T05:41:50;27.50;35.10
59975;DHT22;62136;-35.664;-63.766;2022-12-18T05:44:47;27.40;35.10
59975;DHT22;62136;-35.664;-63.766;2022-12-18T05:47:14;27.40;35.20
59975;DHT22;62136;-35.664;-63.766;2022-12-18T05:49:44;27.40;35.90
59975;DHT22;62136;-35.664;-63.766;2022-12-18T05:52:11;27.40;35.40
59975;DHT22;62136;-35.664;-63.766;2022-12-18T05:54:39;27.40;35.40
59975;DHT22;62136;-35.664;-63.766;2022-12-18T05:57:06;27.40;35.40
59975;DHT22;62136;-35.664;-63.766;2022-12-18T05:59:33;27.40;35.50
59975;DHT22;62136;-35.664;-63.766;2022-12-18T06:02:03;27.40;35.40
59975;DHT22;62136;-35.664;-63.766;2022-12-18T06:04:30;27.30;35.30
59975;DHT22;62136;-35.664;-63.766;2022-12-18T06:06:57;27.30;35.50
59975;DHT22;62136;-35.664;-63.766;2022-12-18T06:09:24;27.30;35.50
59975;DHT22;62136;-35.664;-63.766;2022-12-18T06:11:52;27.30;35.40
59975;DHT22;62136;-35.664;-63.766;2022-12-18T06:14:19;27.30;35.40
59975;DHT22;62136;-35.664;-63.766;2022-12-18T06:16:46;27.30;35.50
59975;DHT22;62136;-35.664;-63.766;2022-12-18T06:19:16;27.30;35.50
59975;DHT22;62136;-35.664;-63.766;2022-12-18T06:21:43;27.20;35.50
59975;DHT22;62136;-35.664;-63.766;2022-12-18T06:24:10;27.20;35.50
59975;DHT22;62136;-35.664;-63.766;2022-12-18T06:26:38;27.20;35.40
59975;DHT22;62136;-35.664;-63.766;2022-12-18T06:29:09;27.20;35.50
59975;DHT22;62136;-35.664;-63.766;2022-12-18T06:31:36;27.20;35.40
59975;DHT22;62136;-35.664;-63.766;2022-12-18T06:34:04;27.20;35.50
59975;DHT22;62136;-35.664;-63.766;2022-12-18T06:36:31;27.10;35.40
59975;DHT22;62136;-35.664;-63.766;2022-12-18T06:38:59;27.10;35.60
59975;DHT22;62136;-35.664;-63.766;2022-12-18T06:41:26;27.10;35.50
59975;DHT22;62136;-35.664;-63.766;2022-12-18T06:43:53;27.10;35.50
59975;DHT22;62136;-35.664;-63.766;2022-12-18T06:46:23;27.10;35.50
59975;DHT22;62136;-35.664;-63.766;2022-12-18T06:48:50;27.10;35.50
59975;DHT22;62136;-35.664;-63.766;2022-12-18T06:51:19;27.10;35.60
59975;DHT22;62136;-35.664;-63.766;2022-12-18T06:53:47;27.10;35.60
59975;DHT22;62136;-35.664;-63.766;2022-12-18T06:56:14;27.00;35.50
59975;DHT22;62136;-35.664;-63.766;2022-12-18T06:58:41;27.00;35.60
59975;DHT22;62136;-35.664;-63.766;2022-12-18T07:01:10;27.00;35.60
59975;DHT22;62136;-35.664;-63.766;2022-12-18T07:03:39;27.00;35.40
59975;DHT22;62136;-35.664;-63.766;2022-12-18T07:06:12;27.00;35.60
59975;DHT22;62136;-35.664;-63.766;2022-12-18T07:08:43;27.00;35.30
59975;DHT22;62136;-35.664;-63.766;2022-12-18T07:11:13;27.00;35.40
59975;DHT22;62136;-35.664;-63.766;2022-12-18T07:13:41;26.90;35.50
59975;DHT22;62136;-35.664;-63.766;2022-12-18T07:16:19;26.90;35.60
59975;DHT22;62136;-35.664;-63.766;2022-12-18T07:18:46;26.90;35.60
59975;DHT22;62136;-35.664;-63.766;2022-12-18T07:21:16;26.90;35.60
59975;DHT22;62136;-35.664;-63.766;2022-12-18T07:23:43;26.90;35.70
59975;DHT22;62136;-35.664;-63.766;2022-12-18T07:26:16;26.90;35.70
59975;DHT22;62136;-35.664;-63.766;2022-12-18T07:28:43;26.90;35.70
59975;DHT22;62136;-35.664;-63.766;2022-12-18T07:31:12;26.80;35.60
59975;DHT22;62136;-35.664;-63.766;2022-12-18T07:33:39;26.80;35.70
59975;DHT22;62136;-35.664;-63.766;2022-12-18T07:36:08;26.90;35.70
59975;DHT22;62136;-35.664;-63.766;2022-12-18T07:38:36;26.80;35.70
59975;DHT22;62136;-35.664;-63.766;2022-12-18T07:41:11;26.80;35.60
59975;DHT22;62136;-35.664;-63.766;2022-12-18T07:43:39;26.80;35.80
59975;DHT22;62136;-35.664;-63.766;2022-12-18T07:46:07;26.80;35.90
59975;DHT22;62136;-35.664;-63.766;2022-12-18T07:48:35;26.80;35.80
59975;DHT22;62136;-35.664;-63.766;2022-12-18T07:51:03;26.80;35.80
59975;DHT22;62136;-35.664;-63.766;2022-12-18T07:53:31;26.70;35.80
59975;DHT22;62136;-35.664;-63.766;2022-12-18T07:56:10;26.70;35.80
59975;DHT22;62136;-35.664;-63.766;2022-12-18T07:58:38;26.70;35.70
59975;DHT22;62136;-35.664;-63.766;2022-12-18T08:01:09;26.70;35.80
59975;DHT22;62136;-35.664;-63.766;2022-12-18T08:03:37;26.70;35.90
59975;DHT22;62136;-35.664;-63.766;2022-12-18T08:06:06;26.70;35.80
59975;DHT22;62136;-35.664;-63.766;2022-12-18T08:08:34;26.70;35.90
59975;DHT22;62136;-35.664;-63.766;2022-12-18T08:11:02;26.70;35.90
59975;DHT22;62136;-35.664;-63.766;2022-12-18T08:13:29;26.60;35.70
59975;DHT22;62136;-35.664;-63.766;2022-12-18T08:16:04;26.70;36.00
59975;DHT22;62136;-35.664;-63.766;2022-12-18T08:18:33;26.60;36.30
59975;DHT22;62136;-35.664;-63.766;2022-12-18T08:21:24;26.60;36.00
59975;DHT22;62136;-35.664;-63.766;2022-12-18T08:23:53;26.60;36.00
59975;DHT22;62136;-35.664;-63.766;2022-12-18T08:26:21;26.50;35.90
59975;DHT22;62136;-35.664;-63.766;2022-12-18T08:28:49;26.60;36.10
59975;DHT22;62136;-35.664;-63.766;2022-12-18T08:31:16;26.50;36.10
59975;DHT22;62136;-35.664;-63.766;2022-12-18T08:33:44;26.50;36.00
59975;DHT22;62136;-35.664;-63.766;2022-12-18T08:36:11;26.50;36.00
59975;DHT22;62136;-35.664;-63.766;2022-12-18T08:38:38;26.50;36.10
59975;DHT22;62136;-35.664;-63.766;2022-12-18T08:41:11;26.50;36.10
59975;DHT22;62136;-35.664;-63.766;2022-12-18T08:43:38;26.50;36.10
59975;DHT22;62136;-35.664;-63.766;2022-12-18T08:46:25;26.40;36.10
59975;DHT22;62136;-35.664;-63.766;2022-12-18T08:48:54;26.40;36.00
59975;DHT22;62136;-35.664;-63.766;2022-12-18T08:51:24;26.40;36.10
59975;DHT22;62136;-35.664;-63.766;2022-12-18T08:53:51;26.40;36.10
59975;DHT22;62136;-35.664;-63.766;2022-12-18T08:56:18;26.30;36.10
59975;DHT22;62136;-35.664;-63.766;2022-12-18T08:58:45;26.30;36.10
59975;DHT22;62136;-35.664;-63.766;2022-12-18T09:01:13;26.30;36.20
59975;DHT22;62136;-35.664;-63.766;2022-12-18T09:03:40;26.30;36.20
59975;DHT22;62136;-35.664;-63.766;2022-12-18T09:06:07;26.30;36.20
59975;DHT22;62136;-35.664;-63.766;2022-12-18T09:08:36;26.30;36.20
59975;DHT22;62136;-35.664;-63.766;2022-12-18T09:11:03;26.30;36.30
59975;DHT22;62136;-35.664;-63.766;2022-12-18T09:13:30;26.30;36.30
59975;DHT22;62136;-35.664;-63.766;2022-12-18T09:15:57;26.30;36.80
59975;DHT22;62136;-35.664;-63.766;2022-12-18T09:18:25;26.30;36.40
59975;DHT22;62136;-35.664;-63.766;2022-12-18T09:20:52;26.20;36.30
59975;DHT22;62136;-35.664;-63.766;2022-12-18T09:23:20;26.20;36.30
59975;DHT22;62136;-35.664;-63.766;2022-12-18T09:25:47;26.20;36.30
59975;DHT22;62136;-35.664;-63.766;2022-12-18T09:28:16;26.20;36.30
59975;DHT22;62136;-35.664;-63.766;2022-12-18T09:30:48;26.20;35.90
59975;DHT22;62136;-35.664;-63.766;2022-12-18T09:33:16;26.20;36.30
59975;DHT22;62136;-35.664;-63.766;2022-12-18T09:35:44;26.20;36.40
59975;DHT22;62136;-35.664;-63.766;2022-12-18T09:38:17;26.20;36.30
59975;DHT22;62136;-35.664;-63.766;2022-12-18T09:40:52;26.10;36.20
59975;DHT22;62136;-35.664;-63.766;2022-12-18T09:43:28;26.10;36.30
59975;DHT22;62136;-35.664;-63.766;2022-12-18T09:46:03;26.10;36.80
59975;DHT22;62136;-35.664;-63.766;2022-12-18T09:48:38;26.10;36.30
59975;DHT22;62136;-35.664;-63.766;2022-12-18T09:51:16;26.10;36.30
59975;DHT22;62136;-35.664;-63.766;2022-12-18T09:53:52;26.10;36.30
59975;DHT22;62136;-35.664;-63.766;2022-12-18T09:56:22;26.10;36.40
59975;DHT22;62136;-35.664;-63.766;2022-12-18T09:58:59;26.10;36.30
59975;DHT22;62136;-35.664;-63.766;2022-12-18T10:01:30;26.10;36.20
59975;DHT22;62136;-35.664;-63.766;2022-12-18T10:03:59;26.10;36.40
59975;DHT22;62136;-35.664;-63.766;2022-12-18T10:06:52;26.00;36.30
59975;DHT22;62136;-35.664;-63.766;2022-12-18T10:18:14;26.10;36.30
59975;DHT22;62136;-35.664;-63.766;2022-12-18T10:20:49;26.10;36.40
59975;DHT22;62136;-35.664;-63.766;2022-12-18T10:26:12;26.10;36.40
59975;DHT22;62136;-35.664;-63.766;2022-12-18T10:28:40;26.10;36.30
59975;DHT22;62136;-35.664;-63.766;2022-12-18T10:31:19;26.00;36.40
59975;DHT22;62136;-35.664;-63.766;2022-12-18T10:33:47;26.00;36.40
59975;DHT22;62136;-35.664;-63.766;2022-12-18T10:36:14;26.00;36.30
59975;DHT22;62136;-35.664;-63.766;2022-12-18T10:38:42;26.00;36.40
59975;DHT22;62136;-35.664;-63.766;2022-12-18T10:43:47;26.10;36.40
59975;DHT22;62136;-35.664;-63.766;2022-12-18T10:46:20;26.10;36.40
59975;DHT22;62136;-35.664;-63.766;2022-12-18T10:48:49;26.10;36.40
59975;DHT22;62136;-35.664;-63.766;2022-12-18T10:51:28;26.00;36.30
59975;DHT22;62136;-35.664;-63.766;2022-12-18T10:54:04;26.10;36.40
59975;DHT22;62136;-35.664;-63.766;2022-12-18T10:56:34;26.00;36.40
59975;DHT22;62136;-35.664;-63.766;2022-12-18T10:59:07;26.10;36.40
59975;DHT22;62136;-35.664;-63.766;2022-12-18T11:01:57;26.00;36.50
59975;DHT22;62136;-35.664;-63.766;2022-12-18T11:04:30;26.10;36.50
59975;DHT22;62136;-35.664;-63.766;2022-12-18T11:07:06;26.10;36.60
59975;DHT22;62136;-35.664;-63.766;2022-12-18T11:09:35;26.10;36.50
59975;DHT22;62136;-35.664;-63.766;2022-12-18T11:12:19;26.10;36.50
59975;DHT22;62136;-35.664;-63.766;2022-12-18T11:14:49;26.00;36.50
59975;DHT22;62136;-35.664;-63.766;2022-12-18T11:19:57;26.10;36.50
59975;DHT22;62136;-35.664;-63.766;2022-12-18T11:22:27;26.10;36.50
59975;DHT22;62136;-35.664;-63.766;2022-12-18T11:27:51;26.10;36.60
59975;DHT22;62136;-35.664;-63.766;2022-12-18T11:30:29;26.10;36.80
59975;DHT22;62136;-35.664;-63.766;2022-12-18T11:35:52;26.10;36.70
59975;DHT22;62136;-35.664;-63.766;2022-12-18T11:38:28;26.10;36.70
59975;DHT22;62136;-35.664;-63.766;2022-12-18T11:46:37;26.10;36.80
59975;DHT22;62136;-35.664;-63.766;2022-12-18T11:49:48;26.10;36.80
59975;DHT22;62136;-35.664;-63.766;2022-12-18T11:54:44;26.10;36.90
59975;DHT22;62136;-35.664;-63.766;2022-12-18T12:00:02;26.10;36.90
59975;DHT22;62136;-35.664;-63.766;2022-12-18T12:10:56;26.20;37.10
59975;DHT22;62136;-35.664;-63.766;2022-12-18T12:13:39;26.10;37.00
59975;DHT22;62136;-35.664;-63.766;2022-12-18T12:19:07;26.20;37.20
59975;DHT22;62136;-35.664;-63.766;2022-12-18T12:21:43;26.20;37.20
59975;DHT22;62136;-35.664;-63.766;2022-12-18T12:24:30;26.10;37.20
59975;DHT22;62136;-35.664;-63.766;2022-12-18T12:27:20;26.10;37.20
59975;DHT22;62136;-35.664;-63.766;2022-12-18T12:30:05;26.20;37.30
59975;DHT22;62136;-35.664;-63.766;2022-12-18T12:35:59;26.10;37.30
59975;DHT22;62136;-35.664;-63.766;2022-12-18T12:38:36;26.20;37.40
59975;DHT22;62136;-35.664;-63.766;2022-12-18T12:41:13;26.10;37.40
59975;DHT22;62136;-35.664;-63.766;2022-12-18T12:44:02;26.10;37.40
59975;DHT22;62136;-35.664;-63.766;2022-12-18T12:46:34;26.20;37.50
59975;DHT22;62136;-35.664;-63.766;2022-12-18T12:49:04;26.10;37.50
59975;DHT22;62136;-35.664;-63.766;2022-12-18T12:51:41;26.20;37.60
59975;DHT22;62136;-35.664;-63.766;2022-12-18T12:54:25;26.10;37.60
59975;DHT22;62136;-35.664;-63.766;2022-12-18T13:05:16;26.20;37.80
59975;DHT22;62136;-35.664;-63.766;2022-12-18T13:07:57;26.20;37.70
59975;DHT22;62136;-35.664;-63.766;2022-12-18T13:10:46;26.20;37.70
59975;DHT22;62136;-35.664;-63.766;2022-12-18T13:13:14;26.20;37.70
59975;DHT22;62136;-35.664;-63.766;2022-12-18T13:16:09;26.20;37.80
59975;DHT22;62136;-35.664;-63.766;2022-12-18T13:18:36;26.20;37.40
59975;DHT22;62136;-35.664;-63.766;2022-12-18T13:21:07;26.20;37.70
59975;DHT22;62136;-35.664;-63.766;2022-12-18T13:23:39;26.20;37.70
59975;DHT22;62136;-35.664;-63.766;2022-12-18T13:34:21;26.30;37.70
59975;DHT22;62136;-35.664;-63.766;2022-12-18T13:36:49;26.30;37.70
59975;DHT22;62136;-35.664;-63.766;2022-12-18T13:45:00;26.40;37.90
59975;DHT22;62136;-35.664;-63.766;2022-12-18T13:47:36;26.40;37.90
59975;DHT22;62136;-35.664;-63.766;2022-12-18T13:50:24;26.40;37.70
59975;DHT22;62136;-35.664;-63.766;2022-12-18T13:52:53;26.50;37.80
59975;DHT22;62136;-35.664;-63.766;2022-12-18T13:55:21;26.50;37.60
59975;DHT22;62136;-35.664;-63.766;2022-12-18T13:57:48;26.60;37.60
59975;DHT22;62136;-35.664;-63.766;2022-12-18T14:00:30;26.50;37.40
59975;DHT22;62136;-35.664;-63.766;2022-12-18T14:02:59;26.60;37.60
59975;DHT22;62136;-35.664;-63.766;2022-12-18T14:05:34;26.60;37.50
59975;DHT22;62136;-35.664;-63.766;2022-12-18T14:08:10;26.70;37.50
59975;DHT22;62136;-35.664;-63.766;2022-12-18T14:10:42;26.70;37.50
59975;DHT22;62136;-35.664;-63.766;2022-12-18T14:13:15;26.70;37.40
59975;DHT22;62136;-35.664;-63.766;2022-12-18T14:15:46;26.70;37.50
59975;DHT22;62136;-35.664;-63.766;2022-12-18T14:18:25;26.70;37.40
59975;DHT22;62136;-35.664;-63.766;2022-12-18T14:20:59;26.80;37.40
59975;DHT22;62136;-35.664;-63.766;2022-12-18T14:23:36;26.80;37.60
59975;DHT22;62136;-35.664;-63.766;2022-12-18T14:28:47;26.90;37.80
59975;DHT22;62136;-35.664;-63.766;2022-12-18T14:31:25;26.90;37.60
59975;DHT22;62136;-35.664;-63.766;2022-12-18T14:33:53;26.90;37.60
59975;DHT22;62136;-35.664;-63.766;2022-12-18T14:36:28;27.00;37.30
59975;DHT22;62136;-35.664;-63.766;2022-12-18T14:38:59;27.00;37.80
59975;DHT22;62136;-35.664;-63.766;2022-12-18T14:41:26;27.00;37.70
59975;DHT22;62136;-35.664;-63.766;2022-12-18T14:43:55;27.00;37.60
59975;DHT22;62136;-35.664;-63.766;2022-12-18T14:46:43;27.10;37.70
59975;DHT22;62136;-35.664;-63.766;2022-12-18T14:51:56;27.20;37.70
59975;DHT22;62136;-35.664;-63.766;2022-12-18T14:54:28;27.20;37.60
59975;DHT22;62136;-35.664;-63.766;2022-12-18T14:59:40;27.40;37.90
59975;DHT22;62136;-35.664;-63.766;2022-12-18T15:02:27;27.40;37.70
59975;DHT22;62136;-35.664;-63.766;2022-12-18T15:07:46;27.50;37.70
59975;DHT22;62136;-35.664;-63.766;2022-12-18T15:10:22;27.50;37.60
59975;DHT22;62136;-35.664;-63.766;2022-12-18T15:13:20;27.50;37.60
59975;DHT22;62136;-35.664;-63.766;2022-12-18T15:23:38;27.60;37.50
59975;DHT22;62136;-35.664;-63.766;2022-12-18T15:26:14;27.70;38.00
59975;DHT22;62136;-35.664;-63.766;2022-12-18T15:28:50;27.70;37.40
59975;DHT22;62136;-35.664;-63.766;2022-12-18T15:31:28;27.80;37.50
59975;DHT22;62136;-35.664;-63.766;2022-12-18T15:36:23;27.80;37.40
59975;DHT22;62136;-35.664;-63.766;2022-12-18T15:38:52;27.80;37.30
59975;DHT22;62136;-35.664;-63.766;2022-12-18T15:41:21;27.90;37.40
59975;DHT22;62136;-35.664;-63.766;2022-12-18T15:43:50;27.90;37.40
59975;DHT22;62136;-35.664;-63.766;2022-12-18T15:46:20;27.90;37.40
59975;DHT22;62136;-35.664;-63.766;2022-12-18T15:48:50;28.00;37.40
59975;DHT22;62136;-35.664;-63.766;2022-12-18T15:51:20;28.00;37.40
59975;DHT22;62136;-35.664;-63.766;2022-12-18T15:53:50;28.00;37.40
59975;DHT22;62136;-35.664;-63.766;2022-12-18T15:56:19;28.00;36.90
59975;DHT22;62136;-35.664;-63.766;2022-12-18T15:59:15;28.00;37.30
59975;DHT22;62136;-35.664;-63.766;2022-12-18T16:01:46;28.10;37.40
59975;DHT22;62136;-35.664;-63.766;2022-12-18T16:04:15;28.10;37.40
59975;DHT22;62136;-35.664;-63.766;2022-12-18T16:06:43;28.10;37.40
59975;DHT22;62136;-35.664;-63.766;2022-12-18T16:09:10;28.10;37.40
59975;DHT22;62136;-35.664;-63.766;2022-12-18T16:11:38;28.10;37.30
59975;DHT22;62136;-35.664;-63.766;2022-12-18T16:14:20;28.20;37.30
59975;DHT22;62136;-35.664;-63.766;2022-12-18T16:16:52;28.20;37.30
59975;DHT22;62136;-35.664;-63.766;2022-12-18T16:19:19;28.20;37.40
59975;DHT22;62136;-35.664;-63.766;2022-12-18T16:21:48;28.20;37.80
59975;DHT22;62136;-35.664;-63.766;2022-12-18T16:24:18;28.20;37.40
59975;DHT22;62136;-35.664;-63.766;2022-12-18T16:26:45;28.30;37.30
59975;DHT22;62136;-35.664;-63.766;2022-12-18T16:29:12;28.30;37.30
59975;DHT22;62136;-35.664;-63.766;2022-12-18T16:31:39;28.30;37.20
59975;DHT22;62136;-35.664;-63.766;2022-12-18T16:36:40;28.30;37.10
59975;DHT22;62136;-35.664;-63.766;2022-12-18T16:39:07;28.30;37.20
59975;DHT22;62136;-35.664;-63.766;2022-12-18T16:41:35;28.40;37.30
59975;DHT22;62136;-35.664;-63.766;2022-12-18T16:44:02;28.40;37.30
59975;DHT22;62136;-35.664;-63.766;2022-12-18T16:46:29;28.40;37.30
59975;DHT22;62136;-35.664;-63.766;2022-12-18T16:49:00;28.40;37.40
59975;DHT22;62136;-35.664;-63.766;2022-12-18T16:51:27;28.40;37.30
59975;DHT22;62136;-35.664;-63.766;2022-12-18T16:53:55;28.40;37.40
59975;DHT22;62136;-35.664;-63.766;2022-12-18T16:56:22;28.30;37.40
59975;DHT22;62136;-35.664;-63.766;2022-12-18T16:58:58;28.40;37.50
59975;DHT22;62136;-35.664;-63.766;2022-12-18T17:01:26;28.40;37.50
59975;DHT22;62136;-35.664;-63.766;2022-12-18T17:03:57;28.40;37.50
59975;DHT22;62136;-35.664;-63.766;2022-12-18T17:06:25;28.40;37.50
59975;DHT22;62136;-35.664;-63.766;2022-12-18T17:09:00;28.40;37.50
59975;DHT22;62136;-35.664;-63.766;2022-12-18T17:11:30;28.40;37.40
59975;DHT22;62136;-35.664;-63.766;2022-12-18T17:13:58;28.50;37.50
59975;DHT22;62136;-35.664;-63.766;2022-12-18T17:16:25;28.50;37.50